Time;durP1;ratioP1;P1;durP2;ratioP2;P2;SDS_P1;SDS_P2;PMS_P1;PMS_P2;Temp;Humidity;BMP_temperature;BMP_pressure;BME280_temperature;BME280_humidity;BME280_pressure;Samples;Min_cycle;Max_cycle;Signal;HPM_P1;HPM_P2
2022/03/18 00:00:14;;;;;;;109.20;58.95;;;;;;;8.35;100.00;101816.38;6277590;22;20004;-83
2022/03/18 00:02:40;;;;;;;105.45;58.45;;;;;;;8.15;100.00;101816.00;6277919;22;20018;-84
2022/03/18 00:05:06;;;;;;;114.18;60.65;;;;;;;8.20;100.00;101813.03;6277995;22;20023;-82
2022/03/18 00:07:31;;;;;;;111.15;59.38;;;;;;;8.13;100.00;101806.53;6277536;22;20443;-86
2022/03/18 00:09:57;;;;;;;113.32;61.53;;;;;;;8.05;100.00;101803.63;6277050;22;20086;-85
2022/03/18 00:12:23;;;;;;;116.03;58.78;;;;;;;8.05;100.00;101806.28;6277655;22;20008;-84
2022/03/18 00:14:48;;;;;;;107.10;60.80;;;;;;;8.07;100.00;101813.13;6277994;22;20106;-82
2022/03/18 00:17:14;;;;;;;107.75;59.72;;;;;;;8.26;100.00;101812.56;6278191;22;20016;-84
2022/03/18 00:19:40;;;;;;;100.85;56.88;;;;;;;8.46;100.00;101809.28;6277391;22;20007;-82
2022/03/18 00:22:06;;;;;;;100.93;56.05;;;;;;;8.63;100.00;101814.13;6277954;22;20500;-84
2022/03/18 00:24:33;;;;;;;101.10;57.28;;;;;;;8.69;100.00;101815.44;6277766;22;20466;-83
2022/03/18 00:26:59;;;;;;;100.55;57.45;;;;;;;8.66;99.97;101816.53;6277448;22;20015;-83
2022/03/18 00:29:25;;;;;;;105.15;56.92;;;;;;;8.46;100.00;101811.09;6277127;22;20023;-84
2022/03/18 00:31:52;;;;;;;99.88;57.72;;;;;;;8.28;100.00;101810.72;6277702;22;20340;-83
2022/03/18 00:34:17;;;;;;;103.32;58.00;;;;;;;8.11;100.00;101816.38;6277500;22;20011;-83
2022/03/18 00:36:43;;;;;;;113.57;59.63;;;;;;;8.05;100.00;101814.19;6277255;22;20442;-84
2022/03/18 00:39:09;;;;;;;104.50;60.15;;;;;;;7.90;100.00;101804.75;6277123;22;20011;-83
2022/03/18 00:41:34;;;;;;;110.63;59.35;;;;;;;7.94;100.00;101814.13;6276689;22;20015;-83
2022/03/18 00:44:00;;;;;;;112.13;60.03;;;;;;;7.92;100.00;101808.13;6277400;22;20010;-83
2022/03/18 00:46:25;;;;;;;109.75;60.30;;;;;;;8.01;100.00;101807.44;6276976;22;20335;-83
2022/03/18 00:54:21;;;;;;;109.90;57.90;;;;;;;8.22;100.00;101822.53;6277177;22;20015;-82
2022/03/18 00:56:47;;;;;;;100.97;57.63;;;;;;;8.33;100.00;101821.75;6250056;22;20012;-83
2022/03/18 00:59:12;;;;;;;100.20;57.13;;;;;;;8.51;100.00;101832.72;6276944;22;20022;-83
2022/03/18 01:01:38;;;;;;;103.25;58.35;;;;;;;8.44;100.00;101813.00;6276881;22;20435;-82
2022/03/18 01:04:04;;;;;;;99.60;55.22;;;;;;;8.64;98.85;101818.47;6276738;22;20003;-82
2022/03/18 01:06:31;;;;;;;107.70;55.25;;;;;;;8.37;99.44;101820.56;6276739;22;20435;-82
2022/03/18 01:08:56;;;;;;;98.00;55.95;;;;;;;8.53;99.60;101815.78;6276425;22;20008;-82
2022/03/18 01:11:22;;;;;;;102.63;57.80;;;;;;;8.49;99.13;101819.63;6277073;22;20057;-84
2022/03/18 01:13:48;;;;;;;108.05;57.60;;;;;;;8.46;99.05;101814.56;6276674;22;20008;-82
2022/03/18 01:16:13;;;;;;;109.88;59.10;;;;;;;8.18;100.00;101809.69;6276648;22;20050;-83
2022/03/18 01:18:39;;;;;;;106.03;57.47;;;;;;;8.00;100.00;101808.41;6276643;22;20008;-83
2022/03/18 01:21:05;;;;;;;112.30;61.08;;;;;;;7.97;100.00;101811.28;6249443;22;20016;-83
2022/03/18 01:23:30;;;;;;;110.88;59.67;;;;;;;7.91;100.00;101814.38;6275831;22;20073;-83
2022/03/18 01:25:56;;;;;;;114.75;60.38;;;;;;;8.05;100.00;101806.28;6276359;22;20011;-84
2022/03/18 01:28:22;;;;;;;110.93;60.20;;;;;;;8.01;100.00;101813.59;6276208;22;20397;-82
2022/03/18 01:30:48;;;;;;;108.93;59.78;;;;;;;8.16;100.00;101801.00;6276965;22;20071;-85
2022/03/18 01:33:13;;;;;;;117.65;61.28;;;;;;;8.17;100.00;101807.97;6276246;22;20011;-84
2022/03/18 01:35:39;;;;;;;106.95;59.30;;;;;;;8.25;100.00;101810.91;6249408;22;20019;-82
2022/03/18 01:38:04;;;;;;;107.90;59.85;;;;;;;8.12;100.00;101799.59;6276586;22;20007;-83
2022/03/18 01:40:31;;;;;;;104.82;59.92;;;;;;;7.94;100.00;101811.50;6249537;22;20327;-85
2022/03/18 01:42:56;;;;;;;110.13;60.80;;;;;;;8.02;100.00;101803.88;6276543;22;20035;-83
2022/03/18 01:45:24;;;;;;;114.65;63.05;;;;;;;7.91;100.00;101801.16;6276485;22;20316;-84
2022/03/18 01:47:49;;;;;;;110.55;60.65;;;;;;;7.85;100.00;101809.56;6276212;22;20015;-82
2022/03/18 01:50:15;;;;;;;113.75;60.60;;;;;;;7.99;100.00;101809.34;6249008;22;20011;-84
2022/03/18 01:52:42;;;;;;;110.95;60.67;;;;;;;7.96;100.00;101813.06;6276375;22;20334;-83
2022/03/18 01:55:08;;;;;;;120.50;61.42;;;;;;;7.68;100.00;101808.16;6276254;22;20011;-82
2022/03/18 01:57:33;;;;;;;116.57;61.92;;;;;;;7.67;100.00;101809.94;6276141;22;20018;-84
2022/03/18 02:00:00;;;;;;;109.55;59.97;;;;;;;7.69;100.00;101797.47;6249393;22;20016;-83
2022/03/18 02:02:26;;;;;;;117.97;60.40;;;;;;;7.98;100.00;101805.88;6249447;22;20070;-81
2022/03/18 02:04:52;;;;;;;112.15;59.83;;;;;;;8.15;100.00;101802.00;6276248;22;20015;-84
2022/03/18 02:07:17;;;;;;;109.18;60.30;;;;;;;8.26;100.00;101808.13;6276710;22;20007;-83
2022/03/18 02:09:44;;;;;;;111.70;60.95;;;;;;;8.33;100.00;101808.53;6249011;22;20073;-82
2022/03/18 02:12:13;;;;;;;111.70;60.47;;;;;;;8.03;100.00;101808.16;6282571;22;20004;-82
2022/03/18 02:14:45;;;;;;;108.15;59.55;;;;;;;7.98;100.00;101808.53;6293485;22;20312;-82
2022/03/18 02:17:12;;;;;;;110.95;60.70;;;;;;;8.08;100.00;101816.59;6249138;22;20066;-83
2022/03/18 02:19:39;;;;;;;105.18;58.05;;;;;;;8.03;100.00;101816.09;6276345;22;20003;-83
2022/03/18 02:22:19;;;;;;;109.60;61.47;;;;;;;7.76;100.00;101817.16;6276026;22;20094;-82
2022/03/18 02:24:46;;;;;;;111.30;60.60;;;;;;;7.63;100.00;101815.53;6275959;22;20076;-82
2022/03/18 02:27:12;;;;;;;114.43;61.78;;;;;;;7.55;100.00;101817.91;6278452;22;20007;-82
2022/03/18 02:29:39;;;;;;;111.40;60.58;;;;;;;7.60;100.00;101823.69;6278877;22;20015;-83
2022/03/18 02:32:05;;;;;;;116.28;61.58;;;;;;;7.52;100.00;101824.25;6277510;22;20007;-82
2022/03/18 02:34:32;;;;;;;122.05;63.40;;;;;;;7.38;100.00;101824.41;6249683;22;20022;-83
2022/03/18 02:36:58;;;;;;;116.18;62.45;;;;;;;7.38;100.00;101816.47;6278121;22;20018;-84
2022/03/18 02:39:24;;;;;;;115.90;62.20;;;;;;;7.38;100.00;101807.72;6278191;22;20035;-84
2022/03/18 02:41:50;;;;;;;112.93;63.08;;;;;;;7.33;100.00;101810.69;6278196;22;20450;-83
2022/03/18 02:44:16;;;;;;;115.28;62.40;;;;;;;7.36;100.00;101814.91;6278263;22;20106;-82
2022/03/18 02:46:41;;;;;;;116.78;62.83;;;;;;;7.27;100.00;101819.03;6277751;22;20008;-83
2022/03/18 02:49:07;;;;;;;117.05;63.80;;;;;;;7.29;100.00;101825.06;6277923;22;20065;-84
2022/03/18 02:51:37;;;;;;;115.63;63.47;;;;;;;7.31;100.00;101827.56;6279965;22;20015;-85
2022/03/18 02:54:07;;;;;;;114.55;62.50;;;;;;;7.32;100.00;101827.47;6280818;22;20024;-83
2022/03/18 02:56:34;;;;;;;108.60;59.75;;;;;;;7.31;100.00;101822.28;6277992;22;20287;-84
2022/03/18 02:59:01;;;;;;;110.88;60.75;;;;;;;7.39;100.00;101819.97;6277695;22;20022;-83
2022/03/18 03:01:28;;;;;;;106.88;57.33;;;;;;;7.64;100.00;101823.34;6251059;22;20003;-83
2022/03/18 03:03:54;;;;;;;113.20;60.78;;;;;;;7.47;100.00;101821.09;6278098;22;20012;-83
2022/03/18 03:09:04;;;;;;;113.47;61.10;;;;;;;7.13;100.00;101820.00;6278277;22;20062;-84
2022/03/18 03:11:29;;;;;;;115.10;61.05;;;;;;;7.00;100.00;101824.44;6250722;22;20431;-82
2022/03/18 03:13:56;;;;;;;109.63;60.08;;;;;;;6.97;100.00;101818.56;6278285;22;20012;-84
2022/03/18 03:16:21;;;;;;;111.20;59.03;;;;;;;7.08;100.00;101816.03;6277753;22;20008;-82
2022/03/18 03:18:47;;;;;;;117.15;61.28;;;;;;;7.06;100.00;101823.19;6277920;22;20006;-83
2022/03/18 03:21:14;;;;;;;111.95;60.08;;;;;;;7.19;100.00;101819.56;6277844;22;20082;-82
2022/03/18 03:23:41;;;;;;;114.72;60.33;;;;;;;7.33;100.00;101826.50;6277874;22;20031;-84
2022/03/18 03:26:07;;;;;;;108.50;58.85;;;;;;;7.37;100.00;101817.44;6277795;22;20008;-81
2022/03/18 03:28:32;;;;;;;109.13;58.45;;;;;;;7.59;100.00;101828.09;6278030;22;20054;-85
2022/03/18 03:30:58;;;;;;;105.93;57.25;;;;;;;7.62;100.00;101832.34;6278092;22;20003;-84
2022/03/18 03:33:24;;;;;;;105.57;58.17;;;;;;;7.53;100.00;101841.75;6250602;22;20016;-84
2022/03/18 03:35:50;;;;;;;105.85;59.03;;;;;;;7.48;100.00;101845.69;6286931;22;20007;-82
2022/03/18 03:38:16;;;;;;;105.53;59.35;;;;;;;7.46;100.00;101845.78;6292525;22;20016;-84
2022/03/18 03:40:43;;;;;;;114.18;58.60;;;;;;;7.42;100.00;101843.47;6277820;22;20019;-84
2022/03/18 03:43:09;;;;;;;108.90;58.92;;;;;;;7.43;100.00;101853.91;6278374;22;20068;-83
2022/03/18 03:45:36;;;;;;;105.00;58.25;;;;;;;7.47;100.00;101852.75;6277831;22;20137;-83
2022/03/18 03:48:03;;;;;;;113.00;60.03;;;;;;;7.34;100.00;101851.94;6277438;22;20015;-83
2022/03/18 03:50:29;;;;;;;117.18;61.90;;;;;;;7.24;100.00;101849.09;6277983;22;20078;-83
2022/03/18 03:52:54;;;;;;;109.95;62.03;;;;;;;7.29;100.00;101861.97;6277906;22;20089;-84
2022/03/18 03:55:20;;;;;;;109.88;61.40;;;;;;;7.42;100.00;101854.88;6277899;22;20008;-83
2022/03/18 03:57:46;;;;;;;115.22;60.30;;;;;;;7.49;100.00;101866.66;6251410;22;20007;-83
2022/03/18 04:00:13;;;;;;;110.97;62.03;;;;;;;7.37;100.00;101864.91;6278275;22;20046;-84
2022/03/18 04:02:38;;;;;;;113.75;59.85;;;;;;;7.57;100.00;101856.41;6278342;22;20003;-84
2022/03/18 04:05:09;;;;;;;114.25;59.15;;;;;;;7.65;100.00;101872.53;6250204;22;20461;-84
2022/03/18 04:07:37;;;;;;;116.70;60.22;;;;;;;7.58;100.00;101871.28;6277553;22;20500;-82
2022/03/18 04:10:04;;;;;;;106.10;59.20;;;;;;;7.56;100.00;101867.06;6277535;22;20012;-83
2022/03/18 04:12:32;;;;;;;113.88;59.92;;;;;;;7.45;100.00;101869.63;6251012;22;20022;-83
2022/03/18 04:15:01;;;;;;;116.57;62.17;;;;;;;7.32;100.00;101868.81;6277374;22;20098;-83
2022/03/18 04:17:38;;;;;;;111.88;60.78;;;;;;;7.31;100.00;101864.47;6277735;22;20008;-82
2022/03/18 04:20:05;;;;;;;116.78;59.83;;;;;;;7.19;100.00;101871.47;6278502;22;20004;-83
2022/03/18 04:22:31;;;;;;;109.25;60.97;;;;;;;7.18;100.00;101875.06;6277998;22;20331;-85
2022/03/18 04:24:57;;;;;;;107.25;56.80;;;;;;;7.27;100.00;101874.41;6285686;22;20014;-83
2022/03/18 04:27:23;;;;;;;116.60;62.33;;;;;;;7.33;100.00;101879.25;6305307;22;19996;-82
2022/03/18 04:29:49;;;;;;;111.60;60.85;;;;;;;7.44;100.00;101887.25;6278769;22;19998;-82
2022/03/18 04:32:14;;;;;;;107.55;60.15;;;;;;;7.17;100.00;101894.44;6304557;22;20019;-82
2022/03/18 04:34:40;;;;;;;105.88;57.88;;;;;;;7.05;100.00;101887.41;6294282;22;20012;-83
2022/03/18 04:37:05;;;;;;;113.95;59.25;;;;;;;7.07;100.00;101888.13;6277912;22;20439;-84
2022/03/18 04:39:31;;;;;;;116.68;60.50;;;;;;;7.12;100.00;101893.94;6277162;22;20019;-84
2022/03/18 04:41:56;;;;;;;106.07;58.90;;;;;;;7.21;100.00;101890.66;6277973;22;20019;-82
2022/03/18 04:44:22;;;;;;;105.90;57.92;;;;;;;7.39;100.00;101889.34;6277525;22;20037;-82
2022/03/18 04:46:48;;;;;;;107.25;56.75;;;;;;;7.43;100.00;101896.09;6277147;22;20328;-84
2022/03/18 04:49:14;;;;;;;107.18;57.97;;;;;;;7.36;100.00;101894.84;6277080;22;20011;-84
2022/03/18 04:51:40;;;;;;;100.35;57.28;;;;;;;7.43;100.00;101896.09;6277376;22;20011;-88
2022/03/18 04:54:06;;;;;;;102.97;57.38;;;;;;;7.32;100.00;101892.56;6277652;22;20016;-86
2022/03/18 04:57:16;;;;;;;100.32;56.08;;;;;;;7.15;100.00;101897.22;6254412;22;20027;-87
2022/03/18 04:59:42;;;;;;;104.18;57.17;;;;;;;7.10;100.00;101887.91;6300868;22;19995;-86
2022/03/18 05:02:11;;;;;;;103.70;55.97;;;;;;;7.15;100.00;101899.00;6261370;22;20069;-88
2022/03/18 05:04:38;;;;;;;100.78;55.28;;;;;;;7.03;100.00;101907.72;6253770;22;20024;-88
2022/03/18 05:07:05;;;;;;;105.70;57.53;;;;;;;7.03;100.00;101907.72;6252472;22;20010;-88
2022/03/18 05:09:31;;;;;;;102.68;56.60;;;;;;;6.96;100.00;101915.22;6251622;22;20007;-91
2022/03/18 05:11:57;;;;;;;104.45;55.92;;;;;;;7.07;100.00;101914.50;6254881;22;20142;-92
2022/03/18 05:14:23;;;;;;;103.28;55.30;;;;;;;7.35;100.00;101919.56;6288840;22;20024;-88
2022/03/18 05:16:50;;;;;;;111.13;59.15;;;;;;;7.15;100.00;101913.03;6253282;22;20027;-88
2022/03/18 05:19:16;;;;;;;114.18;57.63;;;;;;;7.14;100.00;101916.59;6228582;22;20006;-90
2022/03/18 05:21:42;;;;;;;103.75;56.53;;;;;;;7.15;100.00;101909.53;6279602;22;20434;-87
2022/03/18 05:24:08;;;;;;;97.35;53.22;;;;;;;7.25;100.00;101923.78;6281429;22;20061;-87
2022/03/18 05:26:34;;;;;;;108.55;57.17;;;;;;;7.37;100.00;101928.19;6252812;22;20007;-87
2022/03/18 05:29:06;;;;;;;108.00;57.72;;;;;;;7.51;100.00;101919.31;6279885;22;20008;-89
2022/03/18 05:31:35;;;;;;;98.95;55.15;;;;;;;7.36;100.00;101918.59;6252240;22;20027;-88
2022/03/18 05:34:01;;;;;;;103.30;55.95;;;;;;;7.45;100.00;101923.25;6252371;22;20007;-87
2022/03/18 05:36:27;;;;;;;103.10;56.25;;;;;;;7.39;100.00;101921.00;6277630;22;20457;-86
2022/03/18 05:38:52;;;;;;;103.47;55.53;;;;;;;7.33;100.00;101921.44;6282229;22;20012;-88
2022/03/18 05:41:18;;;;;;;104.55;53.53;;;;;;;7.36;100.00;101929.13;6256226;22;20011;-86
2022/03/18 05:43:44;;;;;;;105.03;54.47;;;;;;;7.07;100.00;101919.75;6260454;22;20339;-87
2022/03/18 05:46:11;;;;;;;101.78;56.47;;;;;;;7.11;100.00;101921.25;6252654;22;20007;-89
2022/03/18 05:48:38;;;;;;;109.30;54.47;;;;;;;6.78;100.00;101924.41;6282789;22;20312;-91
2022/03/18 05:51:04;;;;;;;111.50;56.22;;;;;;;6.72;100.00;101920.38;6255042;22;20019;-89
2022/03/18 05:54:00;;;;;;;100.65;55.33;;;;;;;6.64;100.00;101927.94;6287481;22;20012;-87
2022/03/18 05:59:11;;;;;;;103.63;56.38;;;;;;;6.79;100.00;101935.78;6251519;22;20088;-87
2022/03/18 06:01:38;;;;;;;103.47;54.85;;;;;;;6.83;100.00;101934.63;6277542;22;20008;-86
2022/03/18 06:04:04;;;;;;;99.85;53.70;;;;;;;6.95;100.00;101932.00;6278768;22;20008;-88
2022/03/18 06:06:30;;;;;;;98.63;55.30;;;;;;;7.13;100.00;101930.72;6250372;22;20004;-86
2022/03/18 06:11:51;;;;;;;115.47;56.33;;;;;;;7.00;100.00;101934.31;6281658;22;20016;-88
2022/03/18 06:14:23;;;;;;;108.53;56.38;;;;;;;7.01;100.00;101936.00;6210730;22;20058;-85
2022/03/18 06:16:56;;;;;;;108.90;57.03;;;;;;;7.22;100.00;101939.81;6256038;22;20026;-86
2022/03/18 06:19:23;;;;;;;105.20;55.25;;;;;;;7.35;100.00;101945.94;6285076;22;20011;-85
2022/03/18 06:21:52;;;;;;;106.47;54.35;;;;;;;7.47;100.00;101945.06;6215895;22;20015;-86
2022/03/18 06:24:24;;;;;;;113.88;55.42;;;;;;;7.59;100.00;101944.19;6298588;22;20008;-85
2022/03/18 06:26:51;;;;;;;117.13;56.00;;;;;;;7.54;100.00;101946.31;6263226;22;20012;-89
2022/03/18 06:29:17;;;;;;;108.93;54.47;;;;;;;7.72;99.54;101952.91;6251826;22;20071;-88
2022/03/18 06:31:42;;;;;;;95.53;51.80;;;;;;;7.78;98.81;101947.25;6257016;22;20430;-86
2022/03/18 06:34:10;;;;;;;97.63;51.90;;;;;;;8.04;98.09;101949.78;6254104;22;20012;-88
2022/03/18 06:36:36;;;;;;;98.55;51.92;;;;;;;8.14;97.00;101941.09;6252695;22;20071;-86
2022/03/18 06:39:03;;;;;;;95.35;52.08;;;;;;;8.11;95.92;101951.88;6255086;22;20015;-89
2022/03/18 06:41:32;;;;;;;98.20;53.20;;;;;;;8.19;96.31;101948.66;6260109;22;20407;-90
2022/03/18 06:43:58;;;;;;;102.32;54.58;;;;;;;8.27;95.29;101956.88;6254889;22;20019;-86
2022/03/18 06:46:28;;;;;;;96.32;52.58;;;;;;;8.30;96.16;101952.25;6285488;22;20011;-89
2022/03/18 06:48:54;;;;;;;97.32;54.55;;;;;;;8.25;96.09;101959.63;6283495;22;20015;-89
2022/03/18 06:51:20;;;;;;;111.15;58.20;;;;;;;8.06;97.48;101966.34;6283207;22;20010;-89
2022/03/18 06:53:45;;;;;;;112.60;56.97;;;;;;;8.28;96.76;101966.53;6285018;22;20004;-90
2022/03/18 06:56:14;;;;;;;117.30;58.63;;;;;;;8.22;97.01;101974.84;6285848;22;20011;-89
2022/03/18 06:58:42;;;;;;;104.88;53.78;;;;;;;8.22;96.55;101974.84;6257570;22;20019;-88
2022/03/18 07:01:07;;;;;;;93.03;52.75;;;;;;;8.56;96.11;101979.38;6286120;22;20008;-87
2022/03/18 07:03:36;;;;;;;99.95;53.33;;;;;;;8.74;94.49;101975.38;6262073;22;20018;-87
2022/03/18 07:06:06;;;;;;;106.03;54.25;;;;;;;8.87;93.72;101982.38;6259173;22;20004;-87
2022/03/18 07:08:35;;;;;;;101.43;53.22;;;;;;;8.87;92.68;101982.38;6291510;22;20011;-88
2022/03/18 07:11:02;;;;;;;99.13;52.88;;;;;;;8.93;93.94;101993.34;6257598;22;20019;-87
2022/03/18 07:13:27;;;;;;;99.90;54.25;;;;;;;8.80;93.12;101987.28;6285488;22;20000;-85
2022/03/18 07:15:53;;;;;;;97.10;53.13;;;;;;;8.61;94.92;101998.41;6261675;22;20057;-86
2022/03/18 07:18:19;;;;;;;96.82;51.38;;;;;;;8.78;94.67;101995.31;6232025;22;20016;-91
2022/03/18 07:20:44;;;;;;;92.00;51.67;;;;;;;9.07;94.15;101994.94;6283902;22;20431;-88
2022/03/18 07:23:16;;;;;;;99.68;51.78;;;;;;;9.33;92.83;101997.28;6256327;22;20011;-87
2022/03/18 07:25:51;;;;;;;104.90;52.47;;;;;;;9.49;91.32;102001.38;6282616;22;20118;-88
2022/03/18 07:28:18;;;;;;;116.93;51.20;;;;;;;9.47;90.47;102003.31;6256167;22;20020;-89
2022/03/18 07:30:44;;;;;;;101.53;51.95;;;;;;;9.49;91.12;102009.31;6257891;22;20011;-88
2022/03/18 07:33:11;;;;;;;108.82;53.80;;;;;;;9.49;91.45;102007.53;6257350;22;20443;-85
2022/03/18 07:35:37;;;;;;;106.70;51.22;;;;;;;9.62;90.78;102012.69;6283136;22;20015;-87
2022/03/18 07:38:06;;;;;;;100.18;51.50;;;;;;;9.68;90.26;102015.72;6284089;22;20012;-86
2022/03/18 07:40:32;;;;;;;120.45;52.15;;;;;;;9.84;89.54;102015.38;6257129;22;20004;-90
2022/03/18 07:42:58;;;;;;;98.68;52.78;;;;;;;9.69;91.14;102017.41;6286157;22;20043;-86
2022/03/18 07:45:26;;;;;;;94.63;50.63;;;;;;;9.80;90.41;102020.06;6299483;22;20018;-86
2022/03/18 07:47:55;;;;;;;101.47;54.10;;;;;;;9.82;89.05;102020.78;6274530;22;20039;-90
2022/03/18 07:50:23;;;;;;;90.15;51.80;;;;;;;10.10;88.35;102019.44;6256716;22;19999;-90
2022/03/18 07:52:59;;;;;;;98.32;51.80;;;;;;;10.35;86.88;102026.28;6285695;22;20053;-88
2022/03/18 07:55:27;;;;;;;94.40;50.33;;;;;;;10.42;85.12;102022.19;6287247;22;20094;-86
2022/03/18 07:57:55;;;;;;;88.18;48.85;;;;;;;10.12;82.63;102022.81;6288282;22;20012;-88
2022/03/18 08:00:23;;;;;;;82.78;44.53;;;;;;;10.11;80.66;102023.75;6276434;22;20067;-87
2022/03/18 08:02:51;;;;;;;80.53;43.22;;;;;;;10.28;78.89;102027.75;6284569;22;20016;-86
2022/03/18 08:05:17;;;;;;;83.82;43.22;;;;;;;10.17;78.56;102035.72;6255527;22;20011;-85
2022/03/18 08:07:49;;;;;;;79.03;44.58;;;;;;;10.29;78.08;102037.38;6283426;22;20365;-87
2022/03/18 08:10:17;;;;;;;83.30;44.63;;;;;;;10.18;78.02;102032.94;6287762;22;20008;-85
2022/03/18 08:12:44;;;;;;;75.53;42.58;;;;;;;10.19;78.74;102047.03;6283234;22;20363;-86
2022/03/18 08:15:12;;;;;;;80.60;45.33;;;;;;;10.25;78.29;102046.53;6258961;22;20023;-83
2022/03/18 08:17:41;;;;;;;83.30;43.40;;;;;;;10.35;77.19;102048.34;6290439;22;20003;-83
2022/03/18 08:20:11;;;;;;;81.95;44.42;;;;;;;10.11;79.00;102052.91;6264104;22;20019;-90
2022/03/18 08:22:38;;;;;;;80.18;43.80;;;;;;;10.11;78.64;102054.72;6286386;22;20419;-85
2022/03/18 08:25:05;;;;;;;77.85;44.25;;;;;;;10.19;79.32;102054.97;6261087;22;20019;-84
2022/03/18 08:27:32;;;;;;;78.85;42.55;;;;;;;10.25;78.06;102054.47;6261461;22;20023;-90
2022/03/18 08:29:59;;;;;;;78.15;43.28;;;;;;;10.14;78.52;102051.88;6289682;22;20008;-86
2022/03/18 08:32:29;;;;;;;78.55;42.67;;;;;;;10.24;78.04;102063.41;6244867;22;20012;-86
2022/03/18 08:34:55;;;;;;;80.95;43.47;;;;;;;10.27;78.12;102063.19;6266151;22;20083;-85
2022/03/18 08:37:56;;;;;;;76.15;42.50;;;;;;;10.16;78.82;102061.38;6291491;22;20008;-84
2022/03/18 08:40:07;;;;;;;82.72;41.28;;;;;;;10.24;77.57;102058.13;6274051;22;20018;-85
2022/03/18 08:42:34;;;;;;;70.65;40.30;;;;;;;10.55;77.12;102062.63;6262869;22;20057;-87
2022/03/18 08:45:00;;;;;;;77.45;41.88;;;;;;;10.33;76.82;102065.31;6284493;22;20012;-87
2022/03/18 08:47:27;;;;;;;65.90;37.35;;;;;;;10.28;77.05;102070.13;6283156;22;20034;-84
2022/03/18 08:49:52;;;;;;;77.85;39.95;;;;;;;10.21;79.05;102063.63;6282271;22;20339;-88
2022/03/18 08:52:18;;;;;;;74.82;39.22;;;;;;;10.63;77.08;102075.25;6286506;22;20008;-84
2022/03/18 08:54:44;;;;;;;68.20;41.47;;;;;;;10.59;76.53;102074.66;6286366;22;20598;-87
2022/03/18 08:57:10;;;;;;;61.47;36.33;;;;;;;10.74;75.14;102077.88;6254760;22;20019;-88
2022/03/18 08:59:36;;;;;;;65.35;37.83;;;;;;;10.81;74.39;102085.19;6257132;22;20325;-85
2022/03/18 09:02:02;;;;;;;68.05;37.38;;;;;;;10.83;75.13;102082.44;6281868;22;20043;-88
2022/03/18 09:04:28;;;;;;;75.05;37.35;;;;;;;10.88;74.35;102081.09;6254262;22;20015;-85
2022/03/18 09:06:54;;;;;;;66.40;37.58;;;;;;;11.24;73.26;102084.31;6280659;22;20505;-87
2022/03/18 09:09:19;;;;;;;71.55;39.10;;;;;;;11.11;74.64;102088.94;6294779;22;20007;-86
2022/03/18 09:11:45;;;;;;;84.05;39.55;;;;;;;11.48;75.00;102084.91;6266068;22;20015;-89
2022/03/18 09:14:11;;;;;;;71.93;39.85;;;;;;;11.79;73.09;102078.72;6254470;22;20102;-86
2022/03/18 09:16:37;;;;;;;63.90;38.13;;;;;;;11.70;72.69;102079.47;6255661;22;20028;-85
2022/03/18 09:19:07;;;;;;;69.72;38.13;;;;;;;11.71;72.66;102086.47;6255743;22;20061;-89
2022/03/18 09:21:39;;;;;;;65.05;36.65;;;;;;;11.75;70.49;102090.56;6257366;22;20094;-87
2022/03/18 09:24:06;;;;;;;69.03;38.80;;;;;;;11.47;72.06;102093.81;6256706;22;20019;-87
2022/03/18 09:26:31;;;;;;;71.13;38.03;;;;;;;11.83;70.11;102096.03;6233460;22;20041;-89
2022/03/18 09:28:57;;;;;;;64.65;37.05;;;;;;;12.08;68.76;102099.25;6284265;22;20090;-92
2022/03/18 09:31:23;;;;;;;74.32;39.92;;;;;;;12.25;69.83;102099.47;6258967;22;20008;-89
2022/03/18 09:33:49;;;;;;;65.13;34.60;;;;;;;12.71;66.46;102101.53;6286086;22;20033;-88
2022/03/18 09:36:18;;;;;;;59.47;36.13;;;;;;;12.60;67.01;102104.31;6252713;22;20004;-91
2022/03/18 09:38:45;;;;;;;57.97;34.63;;;;;;;12.64;64.39;102102.22;6255981;22;20019;-93
2022/03/18 09:41:11;;;;;;;60.63;35.38;;;;;;;12.54;65.94;102112.84;6255026;22;20015;-90
2022/03/18 09:43:43;;;;;;;55.20;33.33;;;;;;;12.58;64.00;102103.63;6257936;22;20018;-89
2022/03/18 09:46:12;;;;;;;55.65;32.72;;;;;;;12.31;64.60;102090.94;6255981;22;20270;-89
2022/03/18 09:48:39;;;;;;;63.67;32.78;;;;;;;12.48;63.23;102109.88;6277059;22;20431;-84
2022/03/18 09:51:06;;;;;;;51.88;31.70;;;;;;;12.74;62.69;102114.56;6276454;22;20015;-84
2022/03/18 09:53:34;;;;;;;52.33;30.48;;;;;;;12.67;61.79;102108.09;6275544;22;20102;-86
2022/03/18 09:56:01;;;;;;;56.47;27.63;;;;;;;12.62;59.79;102105.03;6277358;22;20057;-86
2022/03/18 09:58:26;;;;;;;43.97;25.23;;;;;;;12.63;57.45;102101.38;6278427;22;20573;-84
2022/03/18 10:00:57;;;;;;;42.95;24.55;;;;;;;12.82;56.55;102128.03;6276712;22;20091;-83
2022/03/18 10:03:35;;;;;;;43.50;23.88;;;;;;;12.75;55.38;102115.41;6276630;22;20465;-86
2022/03/18 10:06:04;;;;;;;40.63;22.58;;;;;;;13.06;55.34;102113.50;6278920;22;20019;-84
2022/03/18 10:08:51;;;;;;;43.78;24.85;;;;;;;13.28;53.81;102118.56;6262427;22;20011;-86
2022/03/18 10:11:28;;;;;;;43.63;24.02;;;;;;;13.48;53.87;102114.91;6258108;22;20059;-86
2022/03/18 10:13:56;;;;;;;42.60;24.70;;;;;;;13.48;54.02;102122.91;6285354;22;20007;-89
2022/03/18 10:16:39;;;;;;;48.78;21.95;;;;;;;13.31;52.85;102123.59;6256197;22;20007;-88
2022/03/18 10:19:18;;;;;;;34.03;20.52;;;;;;;13.47;51.98;102123.88;6227522;22;20007;-90
2022/03/18 10:21:56;;;;;;;35.13;21.00;;;;;;;13.57;51.53;102135.38;6282568;22;20428;-88
2022/03/18 10:24:31;;;;;;;46.63;21.17;;;;;;;13.44;51.46;102137.47;6279224;22;20537;-88
2022/03/18 10:27:13;;;;;;;35.47;20.58;;;;;;;13.47;51.93;102131.88;6279131;22;20078;-87
2022/03/18 10:29:49;;;;;;;31.10;20.05;;;;;;;13.33;52.63;102121.63;6282882;22;20093;-89
2022/03/18 10:32:18;;;;;;;34.97;19.45;;;;;;;13.35;51.44;102119.69;6294335;22;20007;-85
2022/03/18 10:38:04;;;;;;;32.17;19.00;;;;;;;13.58;50.75;102137.06;6252743;22;20073;-88
2022/03/18 10:40:35;;;;;;;36.20;19.42;;;;;;;13.71;49.88;102129.59;6251848;22;20011;-86
2022/03/18 10:43:03;;;;;;;33.25;19.95;;;;;;;13.91;50.02;102130.41;6282118;22;20012;-89
2022/03/18 10:45:30;;;;;;;32.75;20.17;;;;;;;13.83;51.35;102141.78;6277740;22;20531;-90
2022/03/18 10:48:17;;;;;;;33.22;19.75;;;;;;;14.11;49.84;102129.34;6245927;22;20015;-88
2022/03/18 10:50:45;;;;;;;36.60;20.67;;;;;;;14.25;49.95;102131.53;6276345;22;20012;-85
2022/03/18 10:53:12;;;;;;;33.17;19.23;;;;;;;14.21;49.23;102150.66;6276712;22;20039;-86
2022/03/18 10:55:42;;;;;;;34.92;20.08;;;;;;;14.27;49.39;102142.06;6225424;22;20018;-87
2022/03/18 10:58:15;;;;;;;38.28;18.30;;;;;;;14.14;48.17;102136.22;6282284;22;20012;-84
2022/03/18 11:00:50;;;;;;;34.58;16.40;;;;;;;14.10;46.48;102138.31;6282201;22;20004;-85
2022/03/18 11:03:16;;;;;;;35.33;16.30;;;;;;;14.61;45.40;102142.34;6285140;22;20011;-84
2022/03/18 11:05:47;;;;;;;27.50;15.88;;;;;;;14.10;46.00;102153.47;6298388;22;20022;-83
2022/03/18 11:08:21;;;;;;;30.77;16.73;;;;;;;13.77;47.49;102165.47;6253157;22;20012;-85
2022/03/18 11:14:08;;;;;;;26.02;16.08;;;;;;;13.63;46.72;102137.44;6290683;22;20099;-87
2022/03/18 11:16:36;;;;;;;33.20;16.27;;;;;;;13.69;46.67;102150.19;6281350;22;20007;-87
2022/03/18 11:19:06;;;;;;;27.80;14.90;;;;;;;13.66;46.58;102147.81;6228420;22;20011;-86
2022/03/18 11:21:40;;;;;;;28.03;15.10;;;;;;;13.57;47.11;102145.19;6253367;22;20014;-87
2022/03/18 11:24:14;;;;;;;27.77;15.75;;;;;;;13.76;46.64;102135.31;6285718;22;20446;-87
2022/03/18 11:26:49;;;;;;;27.45;15.88;;;;;;;13.99;46.08;102128.66;6285273;22;20008;-86
2022/03/18 11:29:22;;;;;;;29.13;15.75;;;;;;;13.92;46.18;102140.91;6284326;22;20046;-86